createdAt,value
2018-04-02T00:00:54.346Z,0
2018-04-02T00:01:53.564Z,0
2018-04-02T00:02:54.056Z,0
2018-04-02T00:03:53.783Z,0
2018-04-02T00:04:54.035Z,0
2018-04-02T00:05:53.747Z,0
2018-04-02T00:06:54.263Z,0
2018-04-02T00:07:53.713Z,0
2018-04-02T00:08:54.313Z,0
2018-04-02T00:09:53.955Z,0
2018-04-02T00:10:53.664Z,0
2018-04-02T00:11:53.903Z,0
2018-04-02T00:12:53.892Z,0
2018-04-02T00:13:53.872Z,0
2018-04-02T00:14:53.849Z,0
2018-04-02T00:15:53.834Z,0
2018-04-02T00:16:53.571Z,0
2018-04-02T00:17:53.282Z,0
2018-04-02T00:18:53.784Z,0
2018-04-02T00:19:53.513Z,0
2018-04-02T00:20:53.231Z,0
2018-04-02T00:21:53.476Z,0
2018-04-02T00:22:53.980Z,0
2018-04-02T00:23:53.964Z,0
2018-04-02T00:24:53.680Z,0
2018-04-02T00:25:53.411Z,0
2018-04-02T00:26:53.136Z,0
2018-04-02T00:27:53.113Z,0
2018-04-02T00:28:53.870Z,0
2018-04-02T00:29:53.905Z,0
2018-04-02T00:30:53.328Z,0
2018-04-02T00:31:53.307Z,0
2018-04-02T00:32:53.033Z,0
2018-04-02T00:33:53.267Z,0
2018-04-02T00:34:53.517Z,0
2018-04-02T00:35:53.492Z,0
2018-04-02T00:36:53.258Z,0
2018-04-02T00:37:53.723Z,0
2018-04-02T00:38:53.455Z,0
2018-04-02T00:39:53.691Z,0
2018-04-02T00:40:53.410Z,0
2018-04-02T00:41:53.394Z,0
2018-04-02T00:42:53.135Z,0
2018-04-02T00:43:53.614Z,0
2018-04-02T00:44:53.080Z,0
2018-04-02T00:45:53.067Z,0
2018-04-02T00:46:52.793Z,0
2018-04-02T00:47:52.773Z,0
2018-04-02T00:48:52.830Z,0
2018-04-02T00:49:53.252Z,0
2018-04-02T00:50:53.235Z,0
2018-04-02T00:51:53.220Z,0
2018-04-02T00:52:53.205Z,0
2018-04-02T00:53:53.442Z,0
2018-04-02T00:54:53.168Z,0
2018-04-02T00:55:52.891Z,0
2018-04-02T00:56:53.396Z,0
2018-04-02T00:57:53.126Z,0
2018-04-02T00:58:52.847Z,0
2018-04-02T00:59:53.082Z,0
2018-04-02T01:00:52.803Z,0
2018-04-02T01:01:52.791Z,0
2018-04-02T01:02:53.291Z,0
2018-04-02T01:03:52.758Z,0
2018-04-02T01:04:52.483Z,0
2018-04-02T01:05:53.240Z,0
2018-04-02T01:06:53.221Z,0
2018-04-02T01:07:53.207Z,0
2018-04-02T01:08:52.669Z,0
2018-04-02T01:09:52.653Z,0
2018-04-02T01:10:52.898Z,0
2018-04-02T01:11:53.131Z,0
2018-04-02T01:12:53.114Z,0
2018-04-02T01:13:52.324Z,0
2018-04-02T01:14:52.832Z,0
2018-04-02T01:15:52.810Z,0
2018-04-02T01:16:52.794Z,0
2018-04-02T01:17:52.770Z,0
2018-04-02T01:18:52.246Z,0
2018-04-02T01:19:52.752Z,0
2018-04-02T01:20:52.203Z,0
2018-04-02T01:21:52.962Z,0
2018-04-02T01:22:52.692Z,0
2018-04-02T01:23:52.938Z,0
2018-04-02T01:24:52.395Z,0
2018-04-02T01:25:52.631Z,0
2018-04-02T01:26:52.357Z,0
2018-04-02T01:27:52.339Z,0
2018-04-02T01:28:52.843Z,0
2018-04-02T01:29:52.564Z,0
2018-04-02T01:30:52.029Z,0
2018-04-02T01:31:52.271Z,0
2018-04-02T01:32:52.508Z,0
2018-04-02T01:33:52.753Z,0
2018-04-02T01:34:52.476Z,0
2018-04-02T01:35:52.456Z,0
2018-04-02T01:36:52.184Z,0
2018-04-02T01:37:52.680Z,0
2018-04-02T01:38:52.145Z,0
2018-04-02T01:39:51.873Z,0
2018-04-02T01:40:52.115Z,0
2018-04-02T01:41:52.352Z,0
2018-04-02T01:42:52.337Z,0
2018-04-02T01:43:52.577Z,0
2018-04-02T01:44:52.559Z,0
2018-04-02T01:45:52.292Z,0
2018-04-02T01:46:52.270Z,0
2018-04-02T01:47:52.250Z,0
2018-04-02T01:48:51.972Z,0
2018-04-02T01:49:52.216Z,0
2018-04-02T01:50:52.203Z,0
2018-04-02T01:51:52.178Z,0
2018-04-02T01:52:52.165Z,0
2018-04-02T01:53:52.147Z,0
2018-04-02T01:54:51.872Z,0
2018-04-02T01:55:52.369Z,0
2018-04-02T01:56:52.128Z,0
2018-04-02T01:57:51.560Z,0
2018-04-02T01:58:51.544Z,0
2018-04-02T01:59:51.789Z,0
2018-04-02T02:00:51.770Z,0
2018-04-02T02:01:52.061Z,0
2018-04-02T02:02:51.998Z,0
2018-04-02T02:03:51.972Z,0
2018-04-02T02:04:51.963Z,0
2018-04-02T02:05:51.935Z,0
2018-04-02T02:06:51.920Z,0
2018-04-02T02:07:52.173Z,0
2018-04-02T02:08:51.633Z,0
2018-04-02T02:09:51.884Z,0
2018-04-02T02:10:51.865Z,0
2018-04-02T02:11:52.105Z,0
2018-04-02T02:12:52.083Z,0
2018-04-02T02:13:51.802Z,0
2018-04-02T02:14:51.525Z,0
2018-04-02T02:15:51.254Z,0
2018-04-02T02:16:51.504Z,0
2018-04-02T02:17:51.477Z,0
2018-04-02T02:18:51.457Z,0
2018-04-02T02:19:51.697Z,0
2018-04-02T02:20:51.680Z,0
2018-04-02T02:21:51.925Z,0
2018-04-02T02:22:51.654Z,0
2018-04-02T02:23:51.633Z,0
2018-04-02T02:24:51.099Z,0
2018-04-02T02:25:51.594Z,0
2018-04-02T02:26:51.579Z,0
2018-04-02T02:27:51.565Z,0
2018-04-02T02:28:51.545Z,0
2018-04-02T02:29:51.537Z,0
2018-04-02T02:30:51.769Z,0
2018-04-02T02:31:50.987Z,0
2018-04-02T02:32:51.746Z,0
2018-04-02T02:33:51.214Z,0
2018-04-02T02:34:51.568Z,0
2018-04-02T02:35:51.980Z,0
2018-04-02T02:36:50.928Z,0
2018-04-02T02:37:51.139Z,0
2018-04-02T02:38:51.378Z,0
2018-04-02T02:39:51.369Z,0
2018-04-02T02:40:51.097Z,0
2018-04-02T02:41:51.368Z,0
2018-04-02T02:42:51.056Z,0
2018-04-02T02:43:51.568Z,0
2018-04-02T02:44:51.284Z,0
2018-04-02T02:45:51.280Z,0
2018-04-02T02:46:51.240Z,0
2018-04-02T02:47:51.231Z,0
2018-04-02T02:48:51.483Z,0
2018-04-02T02:49:50.924Z,0
2018-04-02T02:50:51.181Z,0
2018-04-02T02:51:51.162Z,0
2018-04-02T02:52:51.151Z,0
2018-04-02T02:53:51.125Z,0
2018-04-02T02:54:51.108Z,0
2018-04-02T02:55:50.574Z,0
2018-04-02T02:56:51.066Z,0
2018-04-02T02:57:51.056Z,0
2018-04-02T02:58:51.300Z,0
2018-04-02T02:59:51.277Z,0
2018-04-02T03:00:50.998Z,0
2018-04-02T03:01:50.464Z,0
2018-04-02T03:02:50.962Z,0
2018-04-02T03:03:50.685Z,0
2018-04-02T03:04:50.927Z,0
2018-04-02T03:05:50.397Z,0
2018-04-02T03:06:50.890Z,0
2018-04-02T03:07:50.886Z,0
2018-04-02T03:08:50.860Z,0
2018-04-02T03:09:50.839Z,0
2018-04-02T03:10:50.569Z,0
2018-04-02T03:11:50.287Z,0
2018-04-02T03:12:51.043Z,0
2018-04-02T03:13:50.250Z,0
2018-04-02T03:14:51.009Z,0
2018-04-02T03:15:50.742Z,0
2018-04-02T03:16:50.715Z,0
2018-04-02T03:17:50.187Z,0
2018-04-02T03:18:50.949Z,0
2018-04-02T03:19:50.148Z,0
2018-04-02T03:20:50.651Z,0
2018-04-02T03:21:50.627Z,0
2018-04-02T03:22:50.387Z,0
2018-04-02T03:23:50.336Z,0
2018-04-02T03:24:50.831Z,0
2018-04-02T03:25:50.559Z,0
2018-04-02T03:26:50.287Z,0
2018-04-02T03:27:50.836Z,0
2018-04-02T03:28:50.509Z,0
2018-04-02T03:29:50.492Z,0
2018-04-02T03:30:50.225Z,0
2018-04-02T03:31:50.218Z,0
2018-04-02T03:32:50.178Z,0
2018-04-02T03:33:50.681Z,0
2018-04-02T03:34:50.663Z,0
2018-04-02T03:35:50.639Z,0
2018-04-02T03:36:50.619Z,0
2018-04-02T03:37:50.602Z,0
2018-04-02T03:38:50.333Z,0
2018-04-02T03:39:50.328Z,0
2018-04-02T03:40:50.297Z,0
2018-04-02T03:41:50.542Z,0
2018-04-02T03:42:50.263Z,0
2018-04-02T03:43:50.243Z,0
2018-04-02T03:44:50.228Z,0
2018-04-02T03:45:50.213Z,0
2018-04-02T03:46:50.443Z,0
2018-04-02T03:47:50.431Z,0
2018-04-02T03:48:49.891Z,0
2018-04-02T03:49:49.876Z,0
2018-04-02T03:50:50.119Z,0
2018-04-02T03:51:50.108Z,0
2018-04-02T03:52:50.079Z,0
2018-04-02T03:53:49.808Z,0
2018-04-02T03:54:50.306Z,0
2018-04-02T03:55:49.766Z,0
2018-04-02T03:56:50.275Z,0
2018-04-02T03:57:49.732Z,0
2018-04-02T03:58:50.230Z,0
2018-04-02T03:59:49.439Z,0
2018-04-02T04:00:49.684Z,0
2018-04-02T04:01:49.925Z,0
2018-04-02T04:02:50.168Z,0
2018-04-02T04:03:49.888Z,0
2018-04-02T04:04:49.349Z,0
2018-04-02T04:05:50.316Z,0
2018-04-02T04:06:49.847Z,0
2018-04-02T04:07:49.296Z,0
2018-04-02T04:08:49.824Z,0
2018-04-02T04:09:49.783Z,0
2018-04-02T04:10:49.242Z,0
2018-04-02T04:11:49.740Z,0
2018-04-02T04:12:49.719Z,0
2018-04-02T04:13:49.975Z,0
2018-04-02T04:14:49.699Z,0
2018-04-02T04:15:49.675Z,0
2018-04-02T04:16:49.648Z,0
2018-04-02T04:17:49.907Z,0
2018-04-02T04:18:49.629Z,0
2018-04-02T04:19:49.077Z,0
2018-04-02T04:20:49.318Z,0
2018-04-02T04:21:49.558Z,0
2018-04-02T04:22:49.537Z,0
2018-04-02T04:23:49.536Z,0
2018-04-02T04:24:49.507Z,0
2018-04-02T04:25:48.967Z,0
2018-04-02T04:26:49.211Z,0
2018-04-02T04:27:48.937Z,0
2018-04-02T04:28:49.173Z,0
2018-04-02T04:29:49.677Z,0
2018-04-02T04:30:49.136Z,0
2018-04-02T04:31:49.650Z,0
2018-04-02T04:32:49.126Z,0
2018-04-02T04:33:49.607Z,0
2018-04-02T04:34:49.321Z,0
2018-04-02T04:35:49.567Z,0
2018-04-02T04:36:49.037Z,0
2018-04-02T04:37:49.089Z,0
2018-04-02T04:38:49.267Z,0
2018-04-02T04:39:49.295Z,0
2018-04-02T04:40:49.214Z,0
2018-04-02T04:41:48.942Z,0
2018-04-02T04:42:49.187Z,0
2018-04-02T04:43:49.418Z,5
2018-04-02T04:44:49.140Z,5
2018-04-02T04:45:48.867Z,5
2018-04-02T04:46:49.107Z,5
2018-04-02T04:47:48.572Z,5
2018-04-02T04:48:49.074Z,5
2018-04-02T04:49:48.536Z,5
2018-04-02T04:50:49.033Z,5
2018-04-02T04:51:49.020Z,5
2018-04-02T04:52:49.001Z,5
2018-04-02T04:53:48.732Z,5
2018-04-02T04:54:48.194Z,10
2018-04-02T04:55:48.172Z,10
2018-04-02T04:56:49.190Z,10
2018-04-02T04:57:48.916Z,10
2018-04-02T04:58:48.892Z,10
2018-04-02T04:59:49.139Z,10
2018-04-02T05:00:49.120Z,10
2018-04-02T05:01:49.105Z,15
2018-04-02T05:02:48.819Z,15
2018-04-02T05:03:48.287Z,15
2018-04-02T05:04:48.788Z,15
2018-04-02T05:05:48.767Z,15
2018-04-02T05:06:48.798Z,15
2018-04-02T05:07:48.481Z,15
2018-04-02T05:08:48.721Z,15
2018-04-02T05:09:48.438Z,15
2018-04-02T05:10:48.675Z,15
2018-04-02T05:11:48.917Z,15
2018-04-02T05:12:48.647Z,10
2018-04-02T05:13:48.388Z,10
2018-04-02T05:14:48.614Z,10
2018-04-02T05:15:48.853Z,15
2018-04-02T05:16:48.580Z,15
2018-04-02T05:17:48.135Z,15
2018-04-02T05:18:48.546Z,15
2018-04-02T05:19:48.265Z,15
2018-04-02T05:20:48.500Z,15
2018-04-02T05:21:48.226Z,15
2018-04-02T05:22:48.803Z,15
2018-04-02T05:23:48.196Z,15
2018-04-02T05:24:48.430Z,15
2018-04-02T05:25:48.157Z,15
2018-04-02T05:26:48.406Z,15
2018-04-02T05:27:48.124Z,15
2018-04-02T05:28:48.106Z,20
2018-04-02T05:29:48.356Z,20
2018-04-02T05:30:47.812Z,20
2018-04-02T05:31:48.315Z,25
2018-04-02T05:32:48.307Z,25
2018-04-02T05:33:48.277Z,25
2018-04-02T05:34:48.264Z,25
2018-04-02T05:35:48.504Z,25
2018-04-02T05:36:47.984Z,25
2018-04-02T05:37:47.695Z,25
2018-04-02T05:38:47.932Z,25
2018-04-02T05:39:48.669Z,25
2018-04-02T05:40:48.156Z,30
2018-04-02T05:41:47.894Z,30
2018-04-02T05:42:48.133Z,30
2018-04-02T05:43:47.905Z,35
2018-04-02T05:44:48.350Z,35
2018-04-02T05:45:48.068Z,35
2018-04-02T05:46:48.307Z,35
2018-04-02T05:47:47.778Z,35
2018-04-02T05:48:47.760Z,35
2018-04-02T05:49:48.002Z,35
2018-04-02T05:50:47.727Z,40
2018-04-02T05:51:47.972Z,40
2018-04-02T05:52:47.952Z,40
2018-04-02T05:53:47.932Z,40
2018-04-02T05:54:47.657Z,40
2018-04-02T05:55:47.910Z,45
2018-04-02T05:56:47.641Z,45
2018-04-02T05:57:47.864Z,45
2018-04-02T05:58:48.104Z,45
2018-04-02T05:59:47.350Z,45
2018-04-02T06:00:48.068Z,45
2018-04-02T06:01:47.804Z,45
2018-04-02T06:02:47.789Z,50
2018-04-02T06:03:47.511Z,55
2018-04-02T06:04:47.745Z,55
2018-04-02T06:05:47.729Z,55
2018-04-02T06:06:47.454Z,60
2018-04-02T06:07:47.693Z,55
2018-04-02T06:08:47.685Z,60
2018-04-02T06:09:46.888Z,60
2018-04-02T06:10:47.650Z,65
2018-04-02T06:11:47.887Z,65
2018-04-02T06:12:47.657Z,70
2018-04-02T06:13:47.337Z,75
2018-04-02T06:14:47.583Z,75
2018-04-02T06:15:47.305Z,75
2018-04-02T06:16:47.722Z,75
2018-04-02T06:17:47.534Z,80
2018-04-02T06:18:47.251Z,85
2018-04-02T06:19:47.498Z,90
2018-04-02T06:20:47.737Z,100
2018-04-02T06:21:47.212Z,105
2018-04-02T06:22:48.068Z,110
2018-04-02T06:23:47.170Z,115
2018-04-02T06:24:47.670Z,115
2018-04-02T06:25:47.397Z,120
2018-04-02T06:26:47.123Z,120
2018-04-02T06:27:47.372Z,120
2018-04-02T06:28:47.350Z,120
2018-04-02T06:29:47.598Z,120
2018-04-02T06:30:47.572Z,120
2018-04-02T06:31:47.481Z,120
2018-04-02T06:32:47.024Z,115
2018-04-02T06:33:47.270Z,110
2018-04-02T06:34:46.996Z,110
2018-04-02T06:35:47.241Z,115
2018-04-02T06:36:47.482Z,115
2018-04-02T06:37:46.951Z,115
2018-04-02T06:38:47.189Z,120
2018-04-02T06:39:47.181Z,125
2018-04-02T06:40:47.419Z,125
2018-04-02T06:41:46.623Z,130
2018-04-02T06:42:47.380Z,130
2018-04-02T06:43:47.104Z,125
2018-04-02T06:44:47.087Z,125
2018-04-02T06:45:46.560Z,125
2018-04-02T06:46:47.066Z,120
2018-04-02T06:47:47.300Z,120
2018-04-02T06:48:46.776Z,125
2018-04-02T06:49:47.014Z,130
2018-04-02T06:50:46.994Z,135
2018-04-02T06:51:46.461Z,140
2018-04-02T06:52:46.968Z,145
2018-04-02T06:53:46.687Z,145
2018-04-02T06:54:47.189Z,145
2018-04-02T06:55:46.916Z,145
2018-04-02T06:56:46.907Z,140
2018-04-02T06:57:46.373Z,140
2018-04-02T06:58:47.141Z,135
2018-04-02T06:59:46.854Z,135
2018-04-02T07:00:46.847Z,140
2018-04-02T07:01:46.565Z,135
2018-04-02T07:02:47.066Z,125
2018-04-02T07:03:46.536Z,130
2018-04-02T07:04:46.516Z,130
2018-04-02T07:05:46.764Z,130
2018-04-02T07:06:46.231Z,125
2018-04-02T07:07:46.214Z,130
2018-04-02T07:08:46.454Z,135
2018-04-02T07:09:46.957Z,135
2018-04-02T07:10:46.685Z,135
2018-04-02T07:11:46.924Z,135
2018-04-02T07:12:46.141Z,130
2018-04-02T07:13:46.644Z,135
2018-04-02T07:14:45.847Z,130
2018-04-02T07:15:46.352Z,125
2018-04-02T07:16:46.076Z,125
2018-04-02T07:17:46.322Z,125
2018-04-02T07:18:46.571Z,130
2018-04-02T07:19:46.039Z,135
2018-04-02T07:20:46.019Z,145
2018-04-02T07:21:46.271Z,145
2018-04-02T07:22:46.499Z,150
2018-04-02T07:23:46.755Z,150
2018-04-02T07:24:46.213Z,145
2018-04-02T07:25:46.461Z,145
2018-04-02T07:26:46.185Z,150
2018-04-02T07:27:46.176Z,145
2018-04-02T07:28:46.408Z,145
2018-04-02T07:29:46.174Z,150
2018-04-02T07:30:46.641Z,155
2018-04-02T07:31:46.107Z,155
2018-04-02T07:32:46.087Z,165
2018-04-02T07:33:46.076Z,175
2018-04-02T07:34:45.838Z,175
2018-04-02T07:35:46.307Z,180
2018-04-02T07:36:45.517Z,190
2018-04-02T07:37:45.758Z,195
2018-04-02T07:38:46.004Z,195
2018-04-02T07:39:46.502Z,200
2018-04-02T07:40:46.226Z,195
2018-04-02T07:41:45.960Z,185
2018-04-02T07:42:46.454Z,180
2018-04-02T07:43:46.186Z,175
2018-04-02T07:44:45.656Z,175
2018-04-02T07:45:45.895Z,180
2018-04-02T07:46:45.938Z,180
2018-04-02T07:47:45.867Z,185
2018-04-02T07:48:45.592Z,190
2018-04-02T07:49:45.843Z,195
2018-04-02T07:50:45.915Z,195
2018-04-02T07:51:46.064Z,185
2018-04-02T07:52:45.794Z,185
2018-04-02T07:53:46.033Z,190
2018-04-02T07:54:46.281Z,195
2018-04-02T07:55:45.759Z,195
2018-04-02T07:56:46.023Z,195
2018-04-02T07:57:45.986Z,185
2018-04-02T07:58:45.710Z,195
2018-04-02T07:59:46.217Z,195
2018-04-02T08:00:46.193Z,165
2018-04-02T08:01:45.400Z,140
2018-04-02T08:02:46.366Z,165
2018-04-02T08:03:45.638Z,185
2018-04-02T08:04:45.880Z,190
2018-04-02T08:05:45.609Z,180
2018-04-02T08:06:45.592Z,160
2018-04-02T08:07:45.314Z,160
2018-04-02T08:08:45.660Z,170
2018-04-02T08:09:45.802Z,185
2018-04-02T08:10:45.276Z,200
2018-04-02T08:11:45.776Z,230
2018-04-02T08:12:45.775Z,230
2018-04-02T08:13:45.749Z,235
2018-04-02T08:14:45.991Z,275
2018-04-02T08:15:45.197Z,275
2018-04-02T08:16:45.182Z,290
2018-04-02T08:17:45.945Z,300
2018-04-02T08:18:45.673Z,315
2018-04-02T08:19:45.399Z,320
2018-04-02T08:20:45.125Z,315
2018-04-02T08:21:45.376Z,315
2018-04-02T08:22:45.358Z,310
2018-04-02T08:23:45.338Z,285
2018-04-02T08:24:45.584Z,315
2018-04-02T08:25:45.333Z,335
2018-04-02T08:26:45.817Z,330
2018-04-02T08:27:45.542Z,320
2018-04-02T08:28:45.268Z,320
2018-04-02T08:29:45.775Z,335
2018-04-02T08:30:45.240Z,325
2018-04-02T08:31:45.491Z,325
2018-04-02T08:32:45.330Z,340
2018-04-02T08:33:45.718Z,355
2018-04-02T08:34:45.451Z,340
2018-04-02T08:35:45.435Z,345
2018-04-02T08:36:45.426Z,325
2018-04-02T08:37:44.888Z,330
2018-04-02T08:38:45.400Z,340
2018-04-02T08:39:45.382Z,320
2018-04-02T08:40:45.634Z,310
2018-04-02T08:41:45.357Z,320
2018-04-02T08:42:45.620Z,330
2018-04-02T08:43:45.589Z,320
2018-04-02T08:44:45.402Z,320
2018-04-02T08:45:45.316Z,305
2018-04-02T08:46:45.042Z,300
2018-04-02T08:47:45.017Z,285
2018-04-02T08:48:45.008Z,260
2018-04-02T08:49:45.019Z,255
2018-04-02T08:50:45.236Z,250
2018-04-02T08:51:45.228Z,265
2018-04-02T08:52:44.997Z,260
2018-04-02T08:53:44.736Z,285
2018-04-02T08:54:45.186Z,285
2018-04-02T08:55:44.916Z,320
2018-04-02T08:56:45.014Z,295
2018-04-02T08:57:45.153Z,250
2018-04-02T08:58:44.621Z,235
2018-04-02T08:59:44.863Z,215
2018-04-02T09:00:45.573Z,240
2018-04-02T09:01:44.581Z,225
2018-04-02T09:02:45.266Z,200
2018-04-02T09:03:45.070Z,190
2018-04-02T09:04:45.062Z,170
2018-04-02T09:05:44.789Z,175
2018-04-02T09:06:44.778Z,170
2018-04-02T09:07:44.519Z,170
2018-04-02T09:08:45.013Z,170
2018-04-02T09:09:45.266Z,170
2018-04-02T09:10:44.730Z,170
2018-04-02T09:11:44.975Z,170
2018-04-02T09:12:45.223Z,170
2018-04-02T09:13:44.701Z,170
2018-04-02T09:14:44.688Z,165
2018-04-02T09:15:44.414Z,165
2018-04-02T09:16:44.918Z,160
2018-04-02T09:17:45.356Z,160
2018-04-02T09:18:44.634Z,165
2018-04-02T09:19:45.137Z,170
2018-04-02T09:20:44.609Z,175
2018-04-02T09:21:44.607Z,170
2018-04-02T09:22:44.901Z,165
2018-04-02T09:23:44.885Z,160
2018-04-02T09:24:44.574Z,160
2018-04-02T09:25:44.550Z,160
2018-04-02T09:26:44.549Z,160
2018-04-02T09:27:44.783Z,160
2018-04-02T09:28:44.772Z,170
2018-04-02T09:29:44.766Z,190
2018-04-02T09:30:44.232Z,235
2018-04-02T09:31:44.734Z,250
2018-04-02T09:32:44.722Z,235
2018-04-02T09:33:44.709Z,205
2018-04-02T09:34:44.444Z,185
2018-04-02T09:35:44.691Z,175
2018-04-02T09:36:44.418Z,190
2018-04-02T09:37:44.955Z,200
2018-04-02T09:38:44.400Z,215
2018-04-02T09:39:44.124Z,225
2018-04-02T09:40:44.373Z,280
2018-04-02T09:41:44.884Z,290
2018-04-02T09:42:44.608Z,240
2018-04-02T09:43:44.336Z,205
2018-04-02T09:44:44.319Z,185
2018-04-02T09:45:44.568Z,195
2018-04-02T09:46:44.815Z,225
2018-04-02T09:47:44.833Z,205
2018-04-02T09:48:44.276Z,180
2018-04-02T09:49:44.006Z,180
2018-04-02T09:50:44.262Z,175
2018-04-02T09:51:44.248Z,190
2018-04-02T09:52:44.235Z,185
2018-04-02T09:53:44.751Z,195
2018-04-02T09:54:44.210Z,220
2018-04-02T09:55:44.202Z,260
2018-04-02T09:56:44.451Z,335
2018-04-02T09:57:44.171Z,380
2018-04-02T09:58:43.900Z,375
2018-04-02T09:59:44.459Z,350
2018-04-02T10:00:44.651Z,360
2018-04-02T10:01:43.863Z,345
2018-04-02T10:02:44.111Z,310
2018-04-02T10:03:43.584Z,265
2018-04-02T10:04:45.275Z,250
2018-04-02T10:05:44.074Z,255
2018-04-02T10:06:44.071Z,250
2018-04-02T10:07:44.312Z,235
2018-04-02T10:08:44.044Z,215
2018-04-02T10:09:43.775Z,215
2018-04-02T10:10:44.088Z,230
2018-04-02T10:11:44.014Z,270
2018-04-02T10:12:44.531Z,295
2018-04-02T10:13:43.999Z,315
2018-04-02T10:14:44.492Z,325
2018-04-02T10:15:44.692Z,275
2018-04-02T10:16:43.950Z,245
2018-04-02T10:17:44.203Z,255
2018-04-02T10:18:43.931Z,290
2018-04-02T10:19:44.201Z,335
2018-04-02T10:20:44.284Z,350
2018-04-02T10:21:44.154Z,355
2018-04-02T10:22:44.144Z,375
2018-04-02T10:23:44.136Z,385
2018-04-02T10:24:43.868Z,390
2018-04-02T10:25:44.370Z,395
2018-04-02T10:26:43.841Z,390
2018-04-02T10:27:44.090Z,375
2018-04-02T10:28:44.075Z,385
2018-04-02T10:29:44.302Z,410
2018-04-02T10:30:44.076Z,390
2018-04-02T10:31:44.062Z,375
2018-04-02T10:32:43.847Z,365
2018-04-02T10:33:43.766Z,350
2018-04-02T10:34:43.499Z,320
2018-04-02T10:35:44.005Z,300
2018-04-02T10:36:43.990Z,270
2018-04-02T10:37:43.721Z,280
2018-04-02T10:38:43.712Z,280
2018-04-02T10:39:43.958Z,310
2018-04-02T10:40:43.695Z,350
2018-04-02T10:41:43.946Z,370
2018-04-02T10:42:43.669Z,375
2018-04-02T10:43:43.924Z,370
2018-04-02T10:44:44.162Z,385
2018-04-02T10:45:43.894Z,395
2018-04-02T10:46:43.636Z,415
2018-04-02T10:47:44.135Z,405
2018-04-02T10:48:44.106Z,355
2018-04-02T10:49:43.852Z,300
2018-04-02T10:50:43.583Z,300
2018-04-02T10:51:43.318Z,335
2018-04-02T10:52:44.079Z,305
2018-04-02T10:53:43.302Z,255
2018-04-02T10:54:43.543Z,230
2018-04-02T10:55:43.277Z,230
2018-04-02T10:56:43.777Z,205
2018-04-02T10:57:43.809Z,180
2018-04-02T10:58:43.765Z,160
2018-04-02T10:59:43.825Z,150
2018-04-02T11:00:43.996Z,150
2018-04-02T11:01:43.215Z,155
2018-04-02T11:02:43.982Z,175
2018-04-02T11:03:43.195Z,185
2018-04-02T11:04:43.439Z,185
2018-04-02T11:05:43.505Z,185
2018-04-02T11:06:43.422Z,185
2018-04-02T11:07:43.402Z,180
2018-04-02T11:08:43.665Z,155
2018-04-02T11:09:43.656Z,150
2018-04-02T11:10:43.635Z,155
2018-04-02T11:11:43.627Z,175
2018-04-02T11:12:43.357Z,175
2018-04-02T11:13:43.821Z,205
2018-04-02T11:14:43.334Z,245
2018-04-02T11:15:43.324Z,270
2018-04-02T11:16:43.567Z,270
2018-04-02T11:17:43.559Z,275
2018-04-02T11:18:43.552Z,285
2018-04-02T11:19:43.533Z,300
2018-04-02T11:20:43.787Z,315
2018-04-02T11:21:43.771Z,315
2018-04-02T11:22:43.761Z,315
2018-04-02T11:23:43.250Z,290
2018-04-02T11:24:42.968Z,285
2018-04-02T11:25:42.954Z,240
2018-04-02T11:26:43.471Z,220
2018-04-02T11:27:43.449Z,235
2018-04-02T11:28:43.440Z,255
2018-04-02T11:29:42.910Z,275
2018-04-02T11:30:43.690Z,295
2018-04-02T11:31:43.664Z,320
2018-04-02T11:32:43.141Z,335
2018-04-02T11:33:43.132Z,325
2018-04-02T11:34:43.370Z,320
2018-04-02T11:35:43.361Z,335
2018-04-02T11:36:42.846Z,360
2018-04-02T11:37:43.616Z,395
2018-04-02T11:38:43.341Z,400
2018-04-02T11:39:43.326Z,395
2018-04-02T11:40:43.058Z,405
2018-04-02T11:41:42.527Z,400
2018-04-02T11:42:43.290Z,400
2018-04-02T11:43:43.029Z,400
2018-04-02T11:44:43.011Z,370
2018-04-02T11:45:42.758Z,355
2018-04-02T11:46:42.995Z,360
2018-04-02T11:47:42.726Z,365
2018-04-02T11:48:43.230Z,380
2018-04-02T11:49:43.225Z,385
2018-04-02T11:50:42.954Z,415
2018-04-02T11:51:43.462Z,415
2018-04-02T11:52:43.215Z,405
2018-04-02T11:53:42.930Z,385
2018-04-02T11:54:43.432Z,340
2018-04-02T11:55:43.167Z,335
2018-04-02T11:56:42.897Z,335
2018-04-02T11:57:42.896Z,335
2018-04-02T11:58:42.887Z,340
2018-04-02T11:59:42.871Z,315
2018-04-02T12:00:42.870Z,280
2018-04-02T12:01:42.859Z,245
2018-04-02T12:02:42.586Z,235
2018-04-02T12:03:42.577Z,210
2018-04-02T12:04:42.833Z,180
2018-04-02T12:05:43.259Z,170
2018-04-02T12:06:42.808Z,165
2018-04-02T12:07:42.805Z,175
2018-04-02T12:08:42.792Z,205
2018-04-02T12:09:42.781Z,210
2018-04-02T12:10:42.920Z,225
2018-04-02T12:11:43.024Z,225
2018-04-02T12:12:43.276Z,230
2018-04-02T12:13:43.006Z,275
2018-04-02T12:14:42.995Z,275
2018-04-02T12:15:42.728Z,265
2018-04-02T12:16:43.226Z,300
2018-04-02T12:17:42.961Z,325
2018-04-02T12:18:42.439Z,345
2018-04-02T12:19:42.698Z,350
2018-04-02T12:20:43.015Z,360
2018-04-02T12:21:43.208Z,375
2018-04-02T12:22:43.431Z,330
2018-04-02T12:23:42.392Z,270
2018-04-02T12:24:42.384Z,225
2018-04-02T12:25:42.890Z,225
2018-04-02T12:26:43.141Z,240
2018-04-02T12:27:42.391Z,225
2018-04-02T12:28:42.861Z,210
2018-04-02T12:29:42.856Z,205
2018-04-02T12:30:43.105Z,215
2018-04-02T12:31:42.830Z,225
2018-04-02T12:32:42.564Z,245
2018-04-02T12:33:42.590Z,270
2018-04-02T12:34:42.564Z,285
2018-04-02T12:35:42.806Z,250
2018-04-02T12:36:42.530Z,225
2018-04-02T12:37:42.774Z,210
2018-04-02T12:38:43.128Z,205
2018-04-02T12:39:42.763Z,215
2018-04-02T12:40:42.808Z,235
2018-04-02T12:41:42.742Z,255
2018-04-02T12:42:42.470Z,255
2018-04-02T12:43:43.100Z,230
2018-04-02T12:44:42.729Z,195
2018-04-02T12:45:42.190Z,170
2018-04-02T12:46:42.438Z,145
2018-04-02T12:47:42.953Z,145
2018-04-02T12:48:42.159Z,145
2018-04-02T12:49:42.927Z,145
2018-04-02T12:50:42.915Z,145
2018-04-02T12:51:42.647Z,145
2018-04-02T12:52:42.379Z,135
2018-04-02T12:53:42.157Z,130
2018-04-02T12:54:42.101Z,140
2018-04-02T12:55:42.089Z,170
2018-04-02T12:56:42.605Z,165
2018-04-02T12:57:42.852Z,160
2018-04-02T12:58:42.320Z,140
2018-04-02T12:59:42.311Z,150
2018-04-02T13:00:42.557Z,170
2018-04-02T13:01:42.805Z,165
2018-04-02T13:02:42.285Z,155
2018-04-02T13:03:42.014Z,150
2018-04-02T13:04:43.050Z,140
2018-04-02T13:05:42.249Z,135
2018-04-02T13:06:42.499Z,140
2018-04-02T13:07:42.744Z,155
2018-04-02T13:08:41.964Z,185
2018-04-02T13:09:42.723Z,170
2018-04-02T13:10:42.756Z,145
2018-04-02T13:11:42.459Z,135
2018-04-02T13:12:42.179Z,130
2018-04-02T13:13:42.167Z,130
2018-04-02T13:14:41.900Z,130
2018-04-02T13:15:42.420Z,130
2018-04-02T13:16:42.405Z,130
2018-04-02T13:17:42.390Z,130
2018-04-02T13:18:42.635Z,130
2018-04-02T13:19:42.374Z,130
2018-04-02T13:20:42.096Z,135
2018-04-02T13:21:42.347Z,135
2018-04-02T13:22:42.345Z,135
2018-04-02T13:23:42.066Z,130
2018-04-02T13:24:42.325Z,125
2018-04-02T13:25:42.305Z,125
2018-04-02T13:26:42.043Z,125
2018-04-02T13:27:42.284Z,125
2018-04-02T13:28:41.759Z,125
2018-04-02T13:29:42.086Z,130
2018-04-02T13:30:42.004Z,130
2018-04-02T13:31:42.107Z,130
2018-04-02T13:32:42.240Z,130
2018-04-02T13:33:41.963Z,130
2018-04-02T13:34:41.956Z,130
2018-04-02T13:35:41.944Z,125
2018-04-02T13:36:42.459Z,125
2018-04-02T13:37:42.184Z,125
2018-04-02T13:38:41.913Z,125
2018-04-02T13:39:42.161Z,135
2018-04-02T13:40:42.409Z,135
2018-04-02T13:41:41.622Z,130
2018-04-02T13:42:41.872Z,130
2018-04-02T13:43:42.127Z,135
2018-04-02T13:44:41.594Z,150
2018-04-02T13:45:41.840Z,155
2018-04-02T13:46:41.829Z,140
2018-04-02T13:47:42.347Z,135
2018-04-02T13:48:42.068Z,130
2018-04-02T13:49:41.797Z,125
2018-04-02T13:50:41.791Z,125
2018-04-02T13:51:42.042Z,125
2018-04-02T13:52:41.766Z,125
2018-04-02T13:53:41.499Z,125
2018-04-02T13:54:42.269Z,125
2018-04-02T13:55:41.736Z,125
2018-04-02T13:56:41.993Z,130
2018-04-02T13:57:41.973Z,135
2018-04-02T13:58:41.706Z,140
2018-04-02T13:59:41.955Z,135
2018-04-02T14:00:42.202Z,125
2018-04-02T14:01:41.675Z,120
2018-04-02T14:02:41.924Z,120
2018-04-02T14:03:41.933Z,125
2018-04-02T14:04:41.906Z,125
2018-04-02T14:05:42.149Z,125
2018-04-02T14:06:41.881Z,125
2018-04-02T14:07:42.130Z,125
2018-04-02T14:08:42.124Z,125
2018-04-02T14:09:41.860Z,120